createdAt,value
2023-01-10T00:03:22.517Z,2.90
2023-01-10T00:08:42.695Z,3.07
2023-01-10T00:14:02.767Z,2.80
2023-01-10T00:19:22.940Z,2.90
2023-01-10T00:24:43.036Z,3.20
2023-01-10T00:30:03.160Z,2.97
2023-01-10T00:35:23.312Z,3.27
2023-01-10T00:40:43.590Z,3.10
2023-01-10T00:46:03.814Z,2.90
2023-01-10T00:51:23.861Z,3.83
2023-01-10T00:56:44.058Z,3.00
2023-01-10T01:02:04.346Z,2.93
2023-01-10T01:07:24.432Z,3.30
2023-01-10T01:12:44.566Z,3.43
2023-01-10T01:18:04.625Z,2.70
2023-01-10T01:23:24.674Z,3.03
2023-01-10T01:28:44.753Z,2.47
2023-01-10T01:34:04.985Z,3.10
2023-01-10T01:39:25.130Z,3.00
2023-01-10T01:44:45.243Z,2.83
2023-01-10T01:50:05.294Z,2.50
2023-01-10T01:55:25.584Z,2.50
2023-01-10T02:00:45.733Z,2.53
2023-01-10T02:06:06.093Z,3.23
2023-01-10T02:11:26.126Z,2.73
2023-01-10T02:16:46.268Z,2.67
2023-01-10T02:22:06.304Z,2.70
2023-01-10T02:27:26.613Z,3.50
2023-01-10T02:32:56.999Z,3.10
2023-01-10T02:38:24.621Z,3.20
2023-01-10T02:43:44.764Z,2.20
2023-01-10T02:49:05.047Z,2.40
2023-01-10T02:54:25.245Z,2.80
2023-01-10T02:59:45.470Z,2.63
2023-01-10T03:05:05.592Z,2.70
2023-01-10T03:10:25.653Z,2.80
2023-01-10T03:15:45.864Z,3.00
2023-01-10T03:21:05.873Z,2.80
2023-01-10T03:26:25.976Z,2.40
2023-01-10T03:31:46.127Z,2.70
2023-01-10T03:37:06.311Z,2.90
2023-01-10T03:42:26.528Z,2.70
2023-01-10T03:47:46.640Z,2.57
2023-01-10T03:53:06.906Z,2.93
2023-01-10T03:58:26.958Z,3.73
2023-01-10T04:03:47.098Z,2.23
2023-01-10T04:09:07.289Z,3.23
2023-01-10T04:14:27.480Z,2.80
2023-01-10T04:19:47.680Z,2.80
2023-01-10T04:25:07.765Z,2.53
2023-01-10T04:30:27.911Z,1.97
2023-01-10T04:35:48.071Z,2.50
2023-01-10T04:41:08.217Z,2.47
2023-01-10T04:46:28.291Z,2.77
2023-01-10T04:51:48.375Z,2.63
2023-01-10T04:57:08.506Z,2.03
2023-01-10T05:02:28.777Z,3.10
2023-01-10T05:07:48.892Z,2.87
2023-01-10T05:13:09.039Z,2.80
2023-01-10T05:18:29.137Z,2.17
2023-01-10T05:23:49.371Z,2.33
2023-01-10T05:29:09.560Z,2.70
2023-01-10T05:34:29.673Z,2.73
2023-01-10T05:39:49.788Z,2.33
2023-01-10T05:45:09.894Z,2.40
2023-01-10T05:50:30.047Z,2.20
2023-01-10T05:55:50.167Z,1.90
2023-01-10T06:01:10.289Z,2.53
2023-01-10T06:06:30.532Z,2.70
2023-01-10T06:11:50.486Z,2.70
2023-01-10T06:17:10.696Z,2.13
2023-01-10T06:22:30.737Z,2.90
2023-01-10T06:27:50.877Z,2.40
2023-01-10T06:33:10.968Z,2.40
2023-01-10T06:38:31.114Z,2.90
2023-01-10T06:43:51.363Z,2.40
2023-01-10T06:49:11.616Z,2.40
2023-01-10T06:54:31.764Z,2.67
2023-01-10T06:59:52.074Z,2.37
2023-01-10T07:05:12.247Z,2.63
2023-01-10T07:10:32.433Z,2.47
2023-01-10T07:15:52.601Z,2.17
2023-01-10T07:21:12.868Z,2.40
2023-01-10T07:26:32.982Z,3.00
2023-01-10T07:31:53.154Z,2.50
2023-01-10T07:37:13.178Z,2.70
2023-01-10T07:42:33.306Z,2.73
2023-01-10T07:47:53.533Z,2.57
2023-01-10T07:53:13.667Z,2.20
2023-01-10T07:58:33.926Z,3.00
2023-01-10T08:03:54.414Z,2.67
2023-01-10T08:09:14.531Z,2.63
2023-01-10T08:14:35.215Z,3.53
2023-01-10T08:19:55.155Z,3.10
2023-01-10T08:25:15.370Z,2.63
2023-01-10T08:30:35.599Z,3.00
2023-01-10T08:35:55.721Z,2.80
2023-01-10T08:41:15.725Z,3.10
2023-01-10T08:46:36.028Z,2.47
2023-01-10T08:51:56.108Z,2.50
2023-01-10T08:57:16.199Z,2.87
2023-01-10T09:02:36.251Z,3.00
2023-01-10T09:07:56.395Z,3.60
2023-01-10T09:13:16.522Z,3.10
2023-01-10T09:18:36.726Z,3.33
2023-01-10T09:23:56.876Z,3.47
2023-01-10T09:29:17.079Z,2.73
2023-01-10T09:34:37.279Z,3.13
2023-01-10T09:39:57.534Z,3.37
2023-01-10T09:45:17.834Z,3.07
2023-01-10T09:50:38.016Z,3.13
2023-01-10T09:55:58.199Z,3.20
2023-01-10T10:01:18.399Z,3.23
2023-01-10T10:06:38.526Z,3.23
2023-01-10T10:11:58.661Z,3.03
2023-01-10T10:17:18.843Z,2.83
2023-01-10T10:22:38.928Z,2.93
2023-01-10T10:27:59.014Z,2.83
2023-01-10T10:33:19.176Z,2.97
2023-01-10T10:38:39.457Z,3.20
2023-01-10T10:43:59.516Z,2.73
2023-01-10T10:49:19.725Z,2.90
2023-01-10T10:54:39.783Z,3.50
2023-01-10T10:59:59.955Z,3.80
2023-01-10T11:05:20.008Z,3.40
2023-01-10T11:10:40.375Z,3.07
2023-01-10T11:16:00.790Z,3.60
2023-01-10T11:21:22.530Z,2.50
2023-01-10T11:26:43.877Z,2.90
2023-01-10T11:32:04.028Z,2.60
2023-01-10T11:37:24.159Z,3.13
2023-01-10T11:42:44.418Z,2.43
2023-01-10T11:48:04.593Z,2.30
2023-01-10T11:53:24.756Z,2.37
2023-01-10T11:58:44.923Z,2.53
2023-01-10T12:04:05.589Z,2.50
2023-01-10T12:09:25.753Z,2.90
2023-01-10T12:14:46.159Z,2.93
2023-01-10T12:20:06.225Z,2.20
2023-01-10T12:25:26.364Z,2.10
2023-01-10T12:30:46.480Z,2.40
2023-01-10T12:36:06.687Z,2.10
2023-01-10T12:41:26.723Z,1.90
2023-01-10T12:47:05.987Z,2.13
2023-01-10T12:52:27.054Z,1.97
2023-01-10T12:57:47.101Z,2.07
2023-01-10T13:03:07.249Z,2.30
2023-01-10T13:08:28.125Z,1.73
2023-01-10T13:13:50.014Z,2.07
2023-01-10T13:19:11.199Z,2.37
2023-01-10T13:24:31.558Z,2.37
2023-01-10T13:29:51.725Z,2.20
2023-01-10T13:35:11.926Z,2.13
2023-01-10T13:40:31.974Z,2.07
2023-01-10T13:45:52.218Z,2.17
2023-01-10T13:51:12.195Z,2.23
2023-01-10T13:56:32.386Z,2.03
2023-01-10T14:01:52.538Z,2.17
2023-01-10T14:07:12.595Z,2.40
2023-01-10T14:12:32.654Z,1.90
2023-01-10T14:17:52.937Z,2.20
2023-01-10T14:23:14.241Z,1.93
2023-01-10T14:28:34.477Z,2.00
2023-01-10T14:33:54.499Z,2.00
2023-01-10T14:39:14.648Z,2.00
2023-01-10T14:44:34.760Z,2.10
2023-01-10T14:49:55.029Z,2.03
2023-01-10T14:55:15.285Z,1.77
2023-01-10T15:00:37.094Z,2.17
2023-01-10T15:05:57.167Z,2.00
2023-01-10T15:11:17.334Z,2.20
2023-01-10T15:16:37.472Z,2.10
2023-01-10T15:21:57.643Z,1.80
2023-01-10T15:27:17.704Z,1.83
2023-01-10T15:32:37.790Z,1.70
2023-01-10T15:37:57.946Z,1.53
2023-01-10T15:43:17.965Z,2.00
2023-01-10T15:48:38.255Z,1.87
2023-01-10T15:53:58.389Z,1.80
2023-01-10T15:59:18.498Z,2.00
2023-01-10T16:04:38.747Z,1.70
2023-01-10T16:09:58.918Z,1.87
2023-01-10T16:15:18.967Z,2.20
2023-01-10T16:20:39.067Z,1.97
2023-01-10T16:25:59.278Z,1.57
2023-01-10T16:31:19.404Z,1.70
2023-01-10T16:36:39.469Z,1.70
2023-01-10T16:41:59.740Z,2.10
2023-01-10T16:47:20.127Z,1.87
2023-01-10T16:52:40.274Z,1.87
2023-01-10T16:58:00.390Z,2.13
2023-01-10T17:03:20.436Z,2.03
2023-01-10T17:08:40.540Z,2.13
2023-01-10T17:14:00.603Z,2.17
2023-01-10T17:19:21.455Z,2.80
2023-01-10T17:24:41.407Z,1.90
2023-01-10T17:30:01.713Z,2.03
2023-01-10T17:35:21.835Z,1.80
2023-01-10T17:40:42.149Z,2.07
2023-01-10T17:46:02.191Z,2.17
2023-01-10T17:51:22.447Z,2.57
2023-01-10T17:56:42.667Z,2.90
2023-01-10T18:02:03.170Z,2.50
2023-01-10T18:07:23.556Z,2.53
2023-01-10T18:12:43.799Z,2.50
2023-01-10T18:18:03.957Z,3.07
2023-01-10T18:23:24.277Z,2.70
2023-01-10T18:28:44.363Z,2.80
2023-01-10T18:34:04.681Z,3.23
2023-01-10T18:39:24.823Z,2.87
2023-01-10T18:44:45.024Z,3.10
2023-01-10T18:50:05.070Z,2.87
2023-01-10T18:55:25.306Z,3.50
2023-01-10T19:00:45.493Z,3.40
2023-01-10T19:06:05.826Z,3.13
2023-01-10T19:11:25.913Z,3.93
2023-01-10T19:16:46.459Z,3.30
2023-01-10T19:22:06.524Z,3.70
2023-01-10T19:27:26.621Z,3.00
2023-01-10T19:32:46.793Z,3.50
2023-01-10T19:38:06.884Z,3.10
2023-01-10T19:43:26.944Z,3.60
2023-01-10T19:48:47.233Z,3.43
2023-01-10T19:54:07.428Z,3.07
2023-01-10T19:59:27.719Z,3.33
2023-01-10T20:04:47.775Z,3.10
2023-01-10T20:10:07.959Z,3.97
2023-01-10T20:15:28.103Z,3.20
2023-01-10T20:20:48.509Z,3.80
2023-01-10T20:26:08.767Z,3.60
2023-01-10T20:31:29.081Z,3.27
2023-01-10T20:36:49.284Z,3.10
2023-01-10T20:42:09.350Z,3.23
2023-01-10T20:47:29.513Z,3.17
2023-01-10T20:52:49.685Z,3.30
2023-01-10T20:58:09.853Z,3.50
2023-01-10T21:03:29.896Z,4.00
2023-01-10T21:08:50.247Z,3.47
2023-01-10T21:14:10.405Z,3.13
2023-01-10T21:19:30.583Z,3.30
2023-01-10T21:24:50.788Z,2.97
2023-01-10T21:30:11.091Z,2.80
2023-01-10T21:35:31.224Z,3.10
2023-01-10T21:40:51.489Z,3.10
2023-01-10T21:46:11.600Z,3.33
2023-01-10T21:51:31.791Z,2.47
2023-01-10T21:56:51.954Z,2.73
2023-01-10T22:02:12.194Z,2.60
2023-01-10T22:07:32.483Z,2.13
2023-01-10T22:12:52.578Z,2.23
2023-01-10T22:18:12.629Z,2.17
2023-01-10T22:23:32.848Z,2.17
2023-01-10T22:28:52.801Z,2.80
2023-01-10T22:34:13.013Z,2.60
2023-01-10T22:39:33.040Z,2.43
2023-01-10T22:44:53.315Z,2.13
2023-01-10T22:50:13.324Z,2.10
2023-01-10T22:55:33.539Z,2.37
2023-01-10T23:00:53.712Z,1.83
2023-01-10T23:06:14.044Z,2.17
2023-01-10T23:11:34.185Z,2.00
2023-01-10T23:16:54.573Z,2.20
2023-01-10T23:22:14.653Z,2.10
2023-01-10T23:27:34.854Z,2.60
2023-01-10T23:32:54.923Z,2.17
2023-01-10T23:38:15.262Z,2.30
2023-01-10T23:43:35.120Z,1.90
2023-01-10T23:48:55.264Z,2.20
2023-01-10T23:54:15.516Z,2.27
2023-01-10T23:59:35.661Z,1.90
